createdAt,value
2022-11-26T00:01:22.361Z,15.70
2022-11-26T00:03:52.795Z,16.90
2022-11-26T00:06:35.040Z,15.90
2022-11-26T00:09:04.009Z,16.70
2022-11-26T00:11:31.923Z,17.10
2022-11-26T00:13:58.433Z,17.60
2022-11-26T00:16:28.751Z,17.00
2022-11-26T00:18:55.337Z,18.00
2022-11-26T00:21:26.358Z,16.90
2022-11-26T00:23:54.706Z,18.00
2022-11-26T00:26:24.151Z,18.30
2022-11-26T00:28:56.321Z,19.60
2022-11-26T00:31:23.690Z,17.70
2022-11-26T00:33:50.367Z,16.60
2022-11-26T00:36:28.342Z,18.40
2022-11-26T00:39:00.877Z,17.10
2022-11-26T00:41:33.485Z,17.40
2022-11-26T00:44:01.845Z,17.90
2022-11-26T00:46:28.484Z,17.10
2022-11-26T00:48:55.690Z,17.50
2022-11-26T00:51:26.681Z,17.00
2022-11-26T00:53:55.871Z,18.30
2022-11-26T00:56:23.161Z,17.10
2022-11-26T00:58:50.989Z,18.50
2022-11-26T01:01:21.466Z,19.10
2022-11-26T01:03:48.670Z,18.50
2022-11-26T01:06:19.734Z,21.00
2022-11-26T01:08:46.787Z,23.00
2022-11-26T01:11:18.083Z,22.40
2022-11-26T01:13:47.365Z,22.40
2022-11-26T01:16:21.861Z,22.10
2022-11-26T01:18:50.268Z,22.70
2022-11-26T01:21:17.707Z,21.70
2022-11-26T01:23:45.620Z,21.30
2022-11-26T01:26:20.086Z,20.40
2022-11-26T01:28:47.357Z,20.00
2022-11-26T01:31:23.056Z,19.10
2022-11-26T01:33:50.083Z,19.10
2022-11-26T01:36:23.219Z,18.70
2022-11-26T01:38:54.833Z,19.10
2022-11-26T01:41:46.625Z,18.40
2022-11-26T01:44:31.304Z,16.90
2022-11-26T01:46:58.961Z,17.30
2022-11-26T01:49:34.329Z,17.10
2022-11-26T01:52:24.187Z,15.30
2022-11-26T01:54:52.874Z,15.60
2022-11-26T01:57:29.145Z,16.20
2022-11-26T02:00:00.836Z,15.90
2022-11-26T02:02:29.205Z,15.00
2022-11-26T02:05:09.135Z,15.30
2022-11-26T02:07:37.029Z,13.90
2022-11-26T02:10:04.684Z,13.80
2022-11-26T02:12:32.300Z,13.00
2022-11-26T02:14:59.440Z,13.30
2022-11-26T02:17:38.695Z,12.00
2022-11-26T02:20:41.409Z,11.50
2022-11-26T02:23:27.532Z,13.00
2022-11-26T02:26:06.388Z,11.80
2022-11-26T02:29:10.352Z,11.50
2022-11-26T02:32:00.519Z,11.90
2022-11-26T02:34:51.790Z,11.00
2022-11-26T02:37:43.598Z,10.00
2022-11-26T02:40:11.680Z,9.30
2022-11-26T02:42:38.805Z,9.90
2022-11-26T02:45:13.982Z,10.10
2022-11-26T02:47:44.351Z,9.60
2022-11-26T02:50:52.409Z,9.60
2022-11-26T02:53:22.268Z,9.10
2022-11-26T02:55:54.076Z,9.10
2022-11-26T02:58:20.777Z,9.40
2022-11-26T03:00:49.100Z,10.10
2022-11-26T03:03:25.404Z,10.30
2022-11-26T03:05:59.266Z,10.30
2022-11-26T03:08:28.067Z,10.10
2022-11-26T03:10:55.384Z,10.40
2022-11-26T03:13:23.390Z,9.70
2022-11-26T03:15:50.425Z,10.70
2022-11-26T03:18:17.509Z,10.10
2022-11-26T03:20:44.519Z,10.00
2022-11-26T03:23:11.112Z,9.60
2022-11-26T03:25:37.713Z,10.00
2022-11-26T03:28:05.307Z,10.20
2022-11-26T03:30:32.360Z,10.10
2022-11-26T03:32:58.936Z,9.90
2022-11-26T03:35:25.602Z,9.70
2022-11-26T03:37:52.661Z,9.50
2022-11-26T03:40:19.328Z,10.00
2022-11-26T03:42:45.954Z,9.20
2022-11-26T03:45:13.511Z,9.60
2022-11-26T03:47:40.515Z,8.80
2022-11-26T03:50:10.285Z,8.60
2022-11-26T03:52:36.905Z,8.40
2022-11-26T03:55:04.284Z,7.40
2022-11-26T03:57:31.276Z,6.80
2022-11-26T03:59:57.839Z,5.70
2022-11-26T04:02:24.874Z,5.40
2022-11-26T04:04:51.684Z,6.00
2022-11-26T04:07:18.246Z,4.80
2022-11-26T04:09:44.905Z,4.60
2022-11-26T04:12:11.483Z,4.80
2022-11-26T04:14:39.571Z,4.90
2022-11-26T04:17:06.322Z,5.20
2022-11-26T04:19:32.891Z,5.60
2022-11-26T04:22:01.215Z,5.10
2022-11-26T04:24:29.804Z,5.10
2022-11-26T04:26:56.437Z,4.90
2022-11-26T04:29:23.044Z,4.80
2022-11-26T04:31:50.072Z,4.90
2022-11-26T04:34:16.657Z,5.10
2022-11-26T04:36:44.337Z,5.40
2022-11-26T04:39:12.070Z,5.10
2022-11-26T04:41:38.632Z,5.10
2022-11-26T04:44:05.561Z,4.90
2022-11-26T04:46:32.601Z,4.60
2022-11-26T04:48:59.772Z,5.00
2022-11-26T04:51:26.767Z,4.80
2022-11-26T04:53:55.772Z,4.80
2022-11-26T04:56:23.449Z,5.80
2022-11-26T04:58:50.129Z,6.00
2022-11-26T05:01:17.259Z,5.80
2022-11-26T05:03:43.936Z,5.90
2022-11-26T05:06:11.153Z,5.60
2022-11-26T05:08:37.774Z,5.90
2022-11-26T05:11:04.556Z,5.60
2022-11-26T05:13:31.197Z,4.90
2022-11-26T05:15:58.941Z,4.70
2022-11-26T05:18:26.173Z,4.70
2022-11-26T05:20:53.168Z,4.70
2022-11-26T05:23:19.749Z,4.60
2022-11-26T05:25:47.269Z,4.60
2022-11-26T05:28:13.849Z,4.20
2022-11-26T05:30:40.449Z,4.10
2022-11-26T05:33:26.063Z,5.00
2022-11-26T05:36:00.268Z,5.00
2022-11-26T05:38:27.075Z,4.90
2022-11-26T05:40:53.802Z,3.90
2022-11-26T05:43:21.510Z,3.90
2022-11-26T05:45:48.203Z,3.30
2022-11-26T05:48:16.355Z,3.60
2022-11-26T05:50:43.065Z,4.10
2022-11-26T05:53:10.199Z,4.40
2022-11-26T05:55:36.877Z,5.10
2022-11-26T05:58:03.537Z,5.50
2022-11-26T06:00:30.115Z,5.80
2022-11-26T06:02:57.210Z,5.40
2022-11-26T06:05:24.058Z,6.40
2022-11-26T06:07:50.759Z,7.20
2022-11-26T06:10:17.662Z,8.00
2022-11-26T06:12:44.682Z,9.40
2022-11-26T06:15:11.974Z,8.90
2022-11-26T06:17:39.589Z,8.40
2022-11-26T06:20:07.055Z,9.60
2022-11-26T06:22:38.637Z,11.20
2022-11-26T06:25:07.493Z,12.50
2022-11-26T06:27:34.747Z,13.90
2022-11-26T06:30:05.177Z,12.40
2022-11-26T06:32:31.927Z,11.90
2022-11-26T06:34:58.766Z,13.40
2022-11-26T06:37:25.826Z,14.50
2022-11-26T06:39:52.432Z,17.50
2022-11-26T06:42:19.180Z,18.20
2022-11-26T06:44:45.950Z,16.90
2022-11-26T06:47:13.276Z,17.40
2022-11-26T06:49:40.310Z,17.20
2022-11-26T06:52:07.522Z,16.50
2022-11-26T06:54:34.174Z,17.40
2022-11-26T06:57:01.443Z,18.90
2022-11-26T06:59:29.357Z,18.30
2022-11-26T07:01:56.283Z,18.20
2022-11-26T07:04:23.950Z,16.20
2022-11-26T07:06:51.529Z,15.80
2022-11-26T07:09:18.088Z,15.10
2022-11-26T07:11:44.813Z,14.90
2022-11-26T07:14:11.796Z,13.90
2022-11-26T07:16:38.866Z,15.90
2022-11-26T07:19:05.561Z,15.90
2022-11-26T07:21:32.648Z,15.00
2022-11-26T07:23:59.773Z,18.50
2022-11-26T07:26:26.409Z,17.50
2022-11-26T07:28:53.546Z,16.40
2022-11-26T07:31:22.394Z,15.30
2022-11-26T07:33:50.824Z,15.70
2022-11-26T07:36:23.506Z,15.80
2022-11-26T07:38:52.570Z,15.70
2022-11-26T07:41:20.145Z,14.30
2022-11-26T07:43:47.121Z,14.60
2022-11-26T07:46:17.875Z,16.30
2022-11-26T07:48:44.832Z,14.80
2022-11-26T07:51:27.368Z,15.00
2022-11-26T07:53:55.073Z,15.00
2022-11-26T07:56:22.252Z,14.90
2022-11-26T07:58:48.918Z,14.30
2022-11-26T08:01:22.201Z,13.70
2022-11-26T08:03:50.815Z,14.30
2022-11-26T08:06:21.371Z,14.60
2022-11-26T08:08:48.397Z,16.40
2022-11-26T08:11:22.736Z,15.00
2022-11-26T08:13:53.936Z,14.40
2022-11-26T08:16:23.260Z,14.00
2022-11-26T08:18:55.345Z,18.90
2022-11-26T08:21:22.451Z,16.70
2022-11-26T08:23:52.772Z,15.10
2022-11-26T08:26:34.728Z,14.60
2022-11-26T08:29:03.576Z,14.90
2022-11-26T08:31:30.937Z,19.30
2022-11-26T08:34:02.946Z,24.00
2022-11-26T08:36:32.095Z,28.00
2022-11-26T08:39:01.686Z,17.70
2022-11-26T08:41:29.524Z,16.00
2022-11-26T08:44:11.923Z,20.90
2022-11-26T08:46:41.766Z,32.20
2022-11-26T08:49:12.541Z,30.30
2022-11-26T08:51:43.749Z,30.40
2022-11-26T08:54:10.877Z,26.00
2022-11-26T08:56:40.445Z,19.60
2022-11-26T08:59:07.994Z,16.60
2022-11-26T09:01:35.098Z,17.60
2022-11-26T09:04:04.475Z,16.20
2022-11-26T09:06:33.949Z,16.50
2022-11-26T09:09:13.722Z,19.90
2022-11-26T09:11:57.993Z,17.80
2022-11-26T09:14:30.788Z,19.50
2022-11-26T09:17:02.764Z,16.00
2022-11-26T09:19:32.492Z,14.30
2022-11-26T09:22:00.426Z,16.50
2022-11-26T09:24:27.134Z,15.00
2022-11-26T09:26:53.796Z,15.30
2022-11-26T09:29:23.465Z,13.00
2022-11-26T09:32:23.463Z,15.00
2022-11-26T09:34:41.410Z,21.00
2022-11-26T09:37:08.583Z,18.20
2022-11-26T09:39:35.713Z,22.60
2022-11-26T09:42:13.351Z,21.30
2022-11-26T09:45:11.605Z,20.90
2022-11-26T09:47:41.834Z,18.70
2022-11-26T09:50:16.157Z,13.30
2022-11-26T09:53:25.051Z,21.10
2022-11-26T09:55:56.380Z,17.30
2022-11-26T09:58:47.176Z,18.40
2022-11-26T10:01:20.456Z,20.50
2022-11-26T10:03:48.184Z,19.60
2022-11-26T10:06:33.668Z,16.50
2022-11-26T10:09:06.407Z,15.00
2022-11-26T10:11:48.740Z,12.60
2022-11-26T10:14:53.078Z,10.20
2022-11-26T10:17:43.934Z,12.80
2022-11-26T10:20:53.517Z,8.00
2022-11-26T10:23:29.836Z,11.70
2022-11-26T10:26:23.955Z,11.00
2022-11-26T10:28:59.725Z,8.60
2022-11-26T10:31:32.757Z,9.80
2022-11-26T10:34:03.958Z,9.40
2022-11-26T10:36:41.042Z,9.00
2022-11-26T10:39:17.270Z,10.20
2022-11-26T10:41:47.419Z,12.30
2022-11-26T10:44:41.056Z,10.70
2022-11-26T10:47:27.370Z,10.00
2022-11-26T10:53:06.050Z,8.40
2022-11-26T10:58:12.736Z,8.80
2022-11-26T11:01:00.713Z,13.00
2022-11-26T11:04:06.807Z,13.20
2022-11-26T11:06:27.299Z,22.70
2022-11-26T11:08:54.409Z,18.10
2022-11-26T11:11:28.014Z,17.90
2022-11-26T11:13:55.990Z,15.00
2022-11-26T11:16:30.024Z,17.90
2022-11-26T11:19:00.505Z,13.20
2022-11-26T11:21:36.743Z,14.20
2022-11-26T11:24:26.625Z,13.80
2022-11-26T11:26:58.336Z,12.90
2022-11-26T11:29:38.834Z,12.50
2022-11-26T11:32:26.309Z,8.70
2022-11-26T11:34:55.734Z,5.80
2022-11-26T11:37:22.555Z,5.80
2022-11-26T11:40:04.733Z,8.70
2022-11-26T11:42:31.794Z,6.80
2022-11-26T11:45:00.668Z,6.90
2022-11-26T11:47:39.927Z,9.30
2022-11-26T11:50:13.642Z,14.80
2022-11-26T11:53:04.375Z,13.00
2022-11-26T11:56:09.289Z,13.20
2022-11-26T11:58:54.361Z,13.10
2022-11-26T12:01:40.121Z,9.30
2022-11-26T12:04:47.318Z,6.10
2022-11-26T12:07:38.583Z,6.80
2022-11-26T12:10:12.230Z,6.40
2022-11-26T12:15:29.534Z,4.50
2022-11-26T12:18:12.100Z,3.90
2022-11-26T12:20:47.910Z,3.60
2022-11-26T12:23:34.058Z,3.80
2022-11-26T12:26:13.683Z,3.90
2022-11-26T12:28:51.690Z,3.40
2022-11-26T12:31:47.232Z,4.20
2022-11-26T12:34:39.183Z,4.50
2022-11-26T12:37:20.726Z,7.00
2022-11-26T12:40:06.442Z,6.70
2022-11-26T12:43:01.501Z,7.30
2022-11-26T12:45:58.809Z,11.10
2022-11-26T12:48:36.349Z,6.70
2022-11-26T12:51:30.499Z,5.60
2022-11-26T12:56:51.746Z,4.60
2022-11-26T12:59:44.987Z,5.20
2022-11-26T13:02:32.347Z,5.40
2022-11-26T13:05:00.363Z,5.10
2022-11-26T13:08:22.092Z,5.40
2022-11-26T13:11:27.416Z,4.50
2022-11-26T13:14:13.650Z,5.00
2022-11-26T13:16:54.575Z,5.10
2022-11-26T13:19:43.421Z,4.60
2022-11-26T13:22:20.200Z,4.60
2022-11-26T13:24:54.452Z,5.10
2022-11-26T13:28:11.126Z,4.80
2022-11-26T13:30:57.024Z,5.80
2022-11-26T13:33:57.161Z,6.80
2022-11-26T13:37:13.043Z,6.90
2022-11-26T13:40:07.888Z,8.50
2022-11-26T13:43:03.340Z,9.00
2022-11-26T13:45:33.614Z,9.00
2022-11-26T13:48:09.019Z,10.60
2022-11-26T13:50:55.760Z,12.10
2022-11-26T13:53:28.101Z,11.80
2022-11-26T13:55:59.453Z,9.90
2022-11-26T13:58:29.879Z,11.00
2022-11-26T14:01:17.180Z,9.40
2022-11-26T14:03:48.255Z,10.40
2022-11-26T14:06:15.044Z,10.60
2022-11-26T14:08:45.763Z,12.50
2022-11-26T14:11:40.545Z,13.20
2022-11-26T14:14:25.655Z,8.20
2022-11-26T14:17:05.164Z,11.00
2022-11-26T14:19:40.649Z,9.70
2022-11-26T14:22:29.416Z,9.50
2022-11-26T14:25:04.615Z,8.20
2022-11-26T14:27:39.303Z,10.20
2022-11-26T14:30:05.978Z,8.90
2022-11-26T14:32:40.055Z,10.40
2022-11-26T14:35:23.381Z,7.20
2022-11-26T14:37:58.093Z,8.10
2022-11-26T14:40:31.133Z,8.30
2022-11-26T14:43:21.712Z,5.80
2022-11-26T14:46:02.835Z,6.60
2022-11-26T14:48:30.273Z,5.50
2022-11-26T14:51:01.661Z,6.30
2022-11-26T14:53:31.660Z,5.50
2022-11-26T14:56:00.238Z,6.20
2022-11-26T14:58:54.156Z,6.20
2022-11-26T15:01:26.351Z,7.70
2022-11-26T15:03:57.784Z,7.40
2022-11-26T15:06:46.898Z,6.80
2022-11-26T15:09:17.836Z,6.20
2022-11-26T15:11:49.268Z,7.70
2022-11-26T15:14:31.020Z,8.40
2022-11-26T15:17:01.829Z,9.60
2022-11-26T15:19:34.327Z,7.80
2022-11-26T15:22:05.386Z,8.10
2022-11-26T15:24:32.010Z,7.50
2022-11-26T15:26:59.026Z,6.40
2022-11-26T15:29:30.589Z,7.30
2022-11-26T15:31:58.131Z,5.30
2022-11-26T15:34:25.988Z,5.90
2022-11-26T15:36:52.746Z,6.50
2022-11-26T15:39:31.386Z,6.40
2022-11-26T15:42:05.574Z,6.10
2022-11-26T15:44:40.538Z,7.00
2022-11-26T15:47:19.799Z,6.70
2022-11-26T15:49:52.216Z,8.20
2022-11-26T15:52:24.005Z,8.40
2022-11-26T15:55:16.889Z,8.40
2022-11-26T15:57:50.101Z,9.40
2022-11-26T16:00:27.875Z,10.10
2022-11-26T16:02:54.828Z,9.60
2022-11-26T16:05:54.569Z,11.20
2022-11-26T16:08:24.675Z,10.90
2022-11-26T16:10:56.363Z,11.40
2022-11-26T16:13:30.888Z,10.60
2022-11-26T16:16:08.551Z,8.90
2022-11-26T16:18:42.434Z,10.30
2022-11-26T16:21:28.268Z,10.60
2022-11-26T16:24:07.234Z,8.80
2022-11-26T16:27:20.339Z,9.40
2022-11-26T16:29:47.821Z,11.70
2022-11-26T16:32:16.073Z,9.60
2022-11-26T16:34:43.797Z,11.80
2022-11-26T16:37:24.461Z,10.80
2022-11-26T16:40:15.033Z,14.00
2022-11-26T16:42:41.794Z,12.10
2022-11-26T16:45:12.467Z,12.00
2022-11-26T16:47:52.330Z,10.80
2022-11-26T16:50:25.457Z,13.10
2022-11-26T16:52:53.721Z,16.40
2022-11-26T16:55:24.881Z,13.90
2022-11-26T16:57:56.649Z,13.80
2022-11-26T17:00:26.777Z,15.30
2022-11-26T17:02:57.829Z,14.60
2022-11-26T17:05:27.641Z,14.20
2022-11-26T17:07:58.462Z,9.70
2022-11-26T17:10:28.586Z,13.10
2022-11-26T17:12:58.270Z,10.50
2022-11-26T17:15:24.827Z,9.60
2022-11-26T17:17:54.110Z,8.70
2022-11-26T17:20:26.708Z,8.50
2022-11-26T17:22:53.729Z,14.60
2022-11-26T17:25:20.446Z,14.90
2022-11-26T17:27:47.690Z,14.40
2022-11-26T17:30:20.724Z,8.80
2022-11-26T17:32:47.490Z,10.00
2022-11-26T17:35:17.171Z,13.30
2022-11-26T17:37:44.377Z,9.30
2022-11-26T17:40:21.438Z,9.40
2022-11-26T17:42:49.482Z,9.10
2022-11-26T17:45:17.641Z,9.00
2022-11-26T17:47:44.822Z,9.80
2022-11-26T17:50:32.328Z,10.90
2022-11-26T17:52:59.940Z,10.20
2022-11-26T17:55:29.953Z,11.70
2022-11-26T17:58:00.072Z,11.60
2022-11-26T18:00:28.945Z,11.30
2022-11-26T18:02:56.839Z,8.60
2022-11-26T18:05:24.856Z,8.40
2022-11-26T18:07:52.145Z,8.80
2022-11-26T18:10:22.586Z,10.00
2022-11-26T18:12:53.829Z,9.70
2022-11-26T18:15:23.622Z,10.30
2022-11-26T18:17:54.035Z,11.30
2022-11-26T18:20:25.940Z,10.20
2022-11-26T18:22:57.060Z,8.30
2022-11-26T18:25:24.565Z,9.20
2022-11-26T18:27:52.598Z,8.30
2022-11-26T18:30:20.712Z,9.00
2022-11-26T18:32:48.680Z,8.10
2022-11-26T18:35:16.697Z,9.80
2022-11-26T18:37:44.113Z,10.00
2022-11-26T18:40:14.396Z,9.90
2022-11-26T18:42:41.173Z,8.80
2022-11-26T18:45:20.285Z,11.60
2022-11-26T18:48:03.154Z,9.30
2022-11-26T18:50:54.393Z,9.30
2022-11-26T18:53:44.486Z,10.50
2022-11-26T18:56:15.281Z,9.40
2022-11-26T18:58:42.811Z,10.80
2022-11-26T19:01:13.875Z,9.50
2022-11-26T19:03:43.969Z,9.40
2022-11-26T19:06:19.994Z,8.80
2022-11-26T19:08:49.324Z,10.10
2022-11-26T19:11:23.324Z,9.90
2022-11-26T19:13:51.406Z,9.80
2022-11-26T19:16:19.777Z,10.60
2022-11-26T19:18:47.047Z,9.10
2022-11-26T19:21:23.579Z,10.00
2022-11-26T19:23:51.239Z,9.80
2022-11-26T19:26:19.039Z,10.00
2022-11-26T19:28:46.115Z,10.30
2022-11-26T19:31:22.225Z,10.00
2022-11-26T19:34:00.445Z,11.70
2022-11-26T19:36:29.309Z,13.60
2022-11-26T19:39:00.145Z,19.70
2022-11-26T19:41:29.028Z,27.70
2022-11-26T19:43:57.938Z,19.30
2022-11-26T19:46:29.396Z,21.70
2022-11-26T19:48:58.232Z,29.50
2022-11-26T19:51:26.483Z,33.10
2022-11-26T19:53:56.623Z,33.70
2022-11-26T19:56:30.277Z,19.60
2022-11-26T19:58:58.417Z,17.90
2022-11-26T20:01:30.602Z,15.00
2022-11-26T20:04:05.123Z,9.90
2022-11-26T20:06:35.619Z,12.20
2022-11-26T20:09:05.093Z,14.70
2022-11-26T20:11:33.071Z,15.70
2022-11-26T20:14:16.949Z,17.00
2022-11-26T20:16:44.520Z,16.50
2022-11-26T20:19:12.279Z,21.70
2022-11-26T20:21:42.548Z,22.60
2022-11-26T20:24:14.747Z,17.60
2022-11-26T20:26:45.650Z,15.20
2022-11-26T20:29:14.537Z,17.90
2022-11-26T20:31:47.033Z,15.70
2022-11-26T20:34:16.262Z,16.30
2022-11-26T20:36:44.219Z,16.20
2022-11-26T20:39:17.485Z,15.70
2022-11-26T20:41:45.075Z,18.70
2022-11-26T20:44:13.012Z,17.00
2022-11-26T20:46:44.880Z,13.40
2022-11-26T20:49:15.417Z,14.30
2022-11-26T20:51:44.009Z,13.90
2022-11-26T20:54:11.755Z,14.50
2022-11-26T20:56:38.461Z,16.40
2022-11-26T20:59:05.329Z,19.50
2022-11-26T21:01:34.727Z,22.90
2022-11-26T21:04:01.728Z,23.30
2022-11-26T21:06:31.851Z,27.70
2022-11-26T21:09:01.709Z,26.40
2022-11-26T21:11:55.603Z,29.00
2022-11-26T21:14:22.941Z,25.60
2022-11-26T21:16:51.496Z,20.10
2022-11-26T21:19:18.709Z,17.50
2022-11-26T21:21:47.014Z,14.20
2022-11-26T21:24:14.440Z,14.50
2022-11-26T21:26:41.446Z,13.80
2022-11-26T21:29:08.421Z,13.40
2022-11-26T21:31:39.109Z,13.80
2022-11-26T21:34:11.197Z,19.00
2022-11-26T21:36:44.697Z,23.10
2022-11-26T21:39:16.657Z,22.60
2022-11-26T21:41:43.940Z,23.10
2022-11-26T21:44:13.105Z,25.10
2022-11-26T21:46:40.135Z,24.00
2022-11-26T21:49:13.005Z,26.60
2022-11-26T21:51:40.426Z,26.30
2022-11-26T21:54:08.672Z,23.50
2022-11-26T21:56:39.667Z,18.60
2022-11-26T21:59:10.277Z,14.60
2022-11-26T22:01:37.815Z,13.80
2022-11-26T22:04:09.720Z,13.00
2022-11-26T22:06:38.152Z,15.30
2022-11-26T22:09:05.289Z,14.90
2022-11-26T22:11:35.145Z,11.60
2022-11-26T22:14:03.024Z,12.20
2022-11-26T22:16:30.453Z,13.80
2022-11-26T22:18:58.537Z,16.20
2022-11-26T22:21:31.166Z,16.90
2022-11-26T22:23:59.597Z,14.50
2022-11-26T22:26:30.507Z,15.60
2022-11-26T22:28:57.967Z,17.70
2022-11-26T22:31:29.655Z,16.30
2022-11-26T22:34:05.328Z,14.80
2022-11-26T22:36:33.998Z,13.10
2022-11-26T22:39:02.584Z,11.20
2022-11-26T22:41:29.189Z,10.80
2022-11-26T22:43:58.720Z,10.70
2022-11-26T22:46:26.831Z,11.30
2022-11-26T22:48:56.130Z,11.50
2022-11-26T22:51:25.729Z,12.90
2022-11-26T22:53:56.412Z,11.70
2022-11-26T22:56:25.632Z,11.40
2022-11-26T22:58:52.388Z,13.20
2022-11-26T23:01:32.363Z,14.10
2022-11-26T23:04:02.069Z,16.10
2022-11-26T23:06:30.998Z,16.40
2022-11-26T23:08:59.866Z,16.30
2022-11-26T23:11:30.016Z,13.80
2022-11-26T23:13:57.669Z,14.50
2022-11-26T23:16:26.389Z,13.60
2022-11-26T23:18:54.900Z,13.60
2022-11-26T23:21:25.670Z,14.60
2022-11-26T23:23:53.514Z,14.10
2022-11-26T23:26:29.536Z,15.00
2022-11-26T23:29:00.815Z,15.20
2022-11-26T23:31:37.148Z,15.70
2022-11-26T23:34:05.618Z,14.90
2022-11-26T23:36:33.787Z,15.30
2022-11-26T23:39:04.432Z,15.80
2022-11-26T23:41:32.417Z,15.10
2022-11-26T23:44:05.189Z,16.10
2022-11-26T23:46:34.619Z,15.60
2022-11-26T23:49:01.236Z,16.20
2022-11-26T23:51:31.006Z,15.70
2022-11-26T23:53:58.562Z,14.50
2022-11-26T23:56:27.776Z,13.10
2022-11-26T23:58:57.746Z,13.70
